sensor_id;sensor_type;location;lat;lon;timestamp;P1;durP1;ratioP1;P2;durP2;ratioP2
16472;SDS011;8347;52.486;13.432;2023-04-15T00:01:17;39.38;;;23.73;;
16472;SDS011;8347;52.486;13.432;2023-04-15T00:04:04;39.85;;;24.00;;
16472;SDS011;8347;52.486;13.432;2023-04-15T00:06:50;39.35;;;23.05;;
16472;SDS011;8347;52.486;13.432;2023-04-15T00:09:38;43.70;;;25.30;;
16472;SDS011;8347;52.486;13.432;2023-04-15T00:12:24;39.38;;;24.42;;
16472;SDS011;8347;52.486;13.432;2023-04-15T00:15:11;44.70;;;24.85;;
16472;SDS011;8347;52.486;13.432;2023-04-15T00:17:58;44.00;;;25.25;;
16472;SDS011;8347;52.486;13.432;2023-04-15T00:20:44;41.97;;;25.15;;
16472;SDS011;8347;52.486;13.432;2023-04-15T00:23:31;42.10;;;24.10;;
16472;SDS011;8347;52.486;13.432;2023-04-15T00:26:18;39.80;;;24.55;;
16472;SDS011;8347;52.486;13.432;2023-04-15T00:29:06;39.22;;;22.98;;
16472;SDS011;8347;52.486;13.432;2023-04-15T00:31:55;44.13;;;25.45;;
16472;SDS011;8347;52.486;13.432;2023-04-15T00:34:41;45.08;;;26.70;;
16472;SDS011;8347;52.486;13.432;2023-04-15T00:37:28;42.20;;;24.75;;
16472;SDS011;8347;52.486;13.432;2023-04-15T00:40:15;42.40;;;26.17;;
16472;SDS011;8347;52.486;13.432;2023-04-15T00:43:03;46.78;;;25.20;;
16472;SDS011;8347;52.486;13.432;2023-04-15T00:45:50;42.78;;;25.35;;
16472;SDS011;8347;52.486;13.432;2023-04-15T00:48:37;46.35;;;25.55;;
16472;SDS011;8347;52.486;13.432;2023-04-15T00:51:25;46.05;;;25.50;;
16472;SDS011;8347;52.486;13.432;2023-04-15T00:54:11;47.28;;;26.35;;
16472;SDS011;8347;52.486;13.432;2023-04-15T00:56:58;48.60;;;27.55;;
16472;SDS011;8347;52.486;13.432;2023-04-15T00:59:45;46.30;;;26.45;;
16472;SDS011;8347;52.486;13.432;2023-04-15T01:02:32;48.45;;;27.17;;
16472;SDS011;8347;52.486;13.432;2023-04-15T01:05:21;48.97;;;25.63;;
16472;SDS011;8347;52.486;13.432;2023-04-15T01:08:08;44.10;;;25.27;;
16472;SDS011;8347;52.486;13.432;2023-04-15T01:10:55;48.92;;;26.98;;
16472;SDS011;8347;52.486;13.432;2023-04-15T01:13:42;47.05;;;25.65;;
16472;SDS011;8347;52.486;13.432;2023-04-15T01:16:29;49.85;;;25.85;;
16472;SDS011;8347;52.486;13.432;2023-04-15T01:19:16;47.38;;;27.08;;
16472;SDS011;8347;52.486;13.432;2023-04-15T01:22:03;53.15;;;27.30;;
16472;SDS011;8347;52.486;13.432;2023-04-15T01:24:54;56.67;;;29.23;;
16472;SDS011;8347;52.486;13.432;2023-04-15T01:27:41;51.42;;;26.42;;
16472;SDS011;8347;52.486;13.432;2023-04-15T01:30:28;55.13;;;27.80;;
16472;SDS011;8347;52.486;13.432;2023-04-15T01:33:19;50.83;;;28.20;;
16472;SDS011;8347;52.486;13.432;2023-04-15T01:36:06;47.75;;;27.17;;
16472;SDS011;8347;52.486;13.432;2023-04-15T01:38:54;58.83;;;29.00;;
16472;SDS011;8347;52.486;13.432;2023-04-15T01:41:42;53.42;;;27.58;;
16472;SDS011;8347;52.486;13.432;2023-04-15T01:44:29;55.17;;;27.33;;
16472;SDS011;8347;52.486;13.432;2023-04-15T01:47:16;66.00;;;28.92;;
16472;SDS011;8347;52.486;13.432;2023-04-15T01:50:03;54.40;;;29.35;;
16472;SDS011;8347;52.486;13.432;2023-04-15T01:52:50;58.30;;;29.73;;
16472;SDS011;8347;52.486;13.432;2023-04-15T01:55:37;61.50;;;30.13;;
16472;SDS011;8347;52.486;13.432;2023-04-15T01:58:23;57.63;;;28.75;;
16472;SDS011;8347;52.486;13.432;2023-04-15T02:01:10;66.72;;;28.75;;
16472;SDS011;8347;52.486;13.432;2023-04-15T02:03:57;57.28;;;30.92;;
16472;SDS011;8347;52.486;13.432;2023-04-15T02:06:44;60.20;;;30.60;;
16472;SDS011;8347;52.486;13.432;2023-04-15T02:09:31;61.65;;;28.88;;
16472;SDS011;8347;52.486;13.432;2023-04-15T02:12:18;54.60;;;27.85;;
16472;SDS011;8347;52.486;13.432;2023-04-15T02:15:05;55.10;;;29.10;;
16472;SDS011;8347;52.486;13.432;2023-04-15T02:17:53;60.20;;;30.13;;
16472;SDS011;8347;52.486;13.432;2023-04-15T02:20:40;62.30;;;30.02;;
16472;SDS011;8347;52.486;13.432;2023-04-15T02:23:27;68.10;;;29.40;;
16472;SDS011;8347;52.486;13.432;2023-04-15T02:26:14;59.75;;;29.40;;
16472;SDS011;8347;52.486;13.432;2023-04-15T02:29:00;61.85;;;28.55;;
16472;SDS011;8347;52.486;13.432;2023-04-15T02:31:46;54.58;;;29.23;;
16472;SDS011;8347;52.486;13.432;2023-04-15T02:34:33;62.60;;;30.10;;
16472;SDS011;8347;52.486;13.432;2023-04-15T02:37:20;60.38;;;29.85;;
16472;SDS011;8347;52.486;13.432;2023-04-15T02:40:09;58.53;;;28.70;;
16472;SDS011;8347;52.486;13.432;2023-04-15T02:42:56;66.30;;;30.48;;
16472;SDS011;8347;52.486;13.432;2023-04-15T02:45:45;60.13;;;28.67;;
16472;SDS011;8347;52.486;13.432;2023-04-15T02:48:32;63.50;;;29.55;;
16472;SDS011;8347;52.486;13.432;2023-04-15T02:51:19;64.28;;;28.90;;
16472;SDS011;8347;52.486;13.432;2023-04-15T02:54:06;55.00;;;28.80;;
16472;SDS011;8347;52.486;13.432;2023-04-15T02:56:53;62.40;;;28.63;;
16472;SDS011;8347;52.486;13.432;2023-04-15T02:59:42;58.20;;;27.85;;
16472;SDS011;8347;52.486;13.432;2023-04-15T03:02:35;61.85;;;29.60;;
16472;SDS011;8347;52.486;13.432;2023-04-15T03:05:23;68.05;;;30.17;;
16472;SDS011;8347;52.486;13.432;2023-04-15T03:08:10;60.42;;;28.85;;
16472;SDS011;8347;52.486;13.432;2023-04-15T03:10:57;57.15;;;28.48;;
16472;SDS011;8347;52.486;13.432;2023-04-15T03:13:45;57.70;;;28.25;;
16472;SDS011;8347;52.486;13.432;2023-04-15T03:16:45;61.17;;;27.67;;
16472;SDS011;8347;52.486;13.432;2023-04-15T03:19:32;54.90;;;26.83;;
16472;SDS011;8347;52.486;13.432;2023-04-15T03:22:20;67.97;;;28.88;;
16472;SDS011;8347;52.486;13.432;2023-04-15T03:25:07;57.30;;;28.55;;
16472;SDS011;8347;52.486;13.432;2023-04-15T03:27:53;55.05;;;27.30;;
16472;SDS011;8347;52.486;13.432;2023-04-15T03:30:39;56.05;;;27.60;;
16472;SDS011;8347;52.486;13.432;2023-04-15T03:33:26;58.05;;;27.80;;
16472;SDS011;8347;52.486;13.432;2023-04-15T03:36:13;49.38;;;25.48;;
16472;SDS011;8347;52.486;13.432;2023-04-15T03:39:00;51.80;;;27.02;;
16472;SDS011;8347;52.486;13.432;2023-04-15T03:41:47;52.45;;;27.40;;
16472;SDS011;8347;52.486;13.432;2023-04-15T03:44:34;50.03;;;27.27;;
16472;SDS011;8347;52.486;13.432;2023-04-15T03:47:20;50.15;;;26.52;;
16472;SDS011;8347;52.486;13.432;2023-04-15T03:50:07;48.25;;;25.13;;
16472;SDS011;8347;52.486;13.432;2023-04-15T03:52:54;55.55;;;28.45;;
16472;SDS011;8347;52.486;13.432;2023-04-15T03:55:40;49.40;;;25.73;;
16472;SDS011;8347;52.486;13.432;2023-04-15T03:58:26;50.28;;;25.60;;
16472;SDS011;8347;52.486;13.432;2023-04-15T04:01:13;49.13;;;23.67;;
16472;SDS011;8347;52.486;13.432;2023-04-15T04:03:59;49.58;;;24.58;;
16472;SDS011;8347;52.486;13.432;2023-04-15T04:06:47;45.42;;;24.55;;
16472;SDS011;8347;52.486;13.432;2023-04-15T04:09:33;48.30;;;24.45;;
16472;SDS011;8347;52.486;13.432;2023-04-15T04:12:20;44.28;;;25.23;;
16472;SDS011;8347;52.486;13.432;2023-04-15T04:15:06;43.13;;;24.50;;
16472;SDS011;8347;52.486;13.432;2023-04-15T04:17:53;43.45;;;23.98;;
16472;SDS011;8347;52.486;13.432;2023-04-15T04:20:39;45.72;;;23.65;;
16472;SDS011;8347;52.486;13.432;2023-04-15T04:23:26;42.58;;;23.15;;
16472;SDS011;8347;52.486;13.432;2023-04-15T04:26:13;43.88;;;24.50;;
16472;SDS011;8347;52.486;13.432;2023-04-15T04:28:59;40.88;;;21.90;;
16472;SDS011;8347;52.486;13.432;2023-04-15T04:31:45;43.03;;;24.20;;
16472;SDS011;8347;52.486;13.432;2023-04-15T04:34:33;42.30;;;23.23;;
16472;SDS011;8347;52.486;13.432;2023-04-15T04:37:20;37.63;;;23.75;;
16472;SDS011;8347;52.486;13.432;2023-04-15T04:40:06;43.15;;;22.60;;
16472;SDS011;8347;52.486;13.432;2023-04-15T04:42:54;37.35;;;21.92;;
16472;SDS011;8347;52.486;13.432;2023-04-15T04:45:40;39.30;;;23.27;;
16472;SDS011;8347;52.486;13.432;2023-04-15T04:48:27;38.25;;;23.60;;
16472;SDS011;8347;52.486;13.432;2023-04-15T04:51:14;39.35;;;22.23;;
16472;SDS011;8347;52.486;13.432;2023-04-15T04:54:00;34.25;;;21.10;;
16472;SDS011;8347;52.486;13.432;2023-04-15T04:56:47;37.25;;;21.60;;
16472;SDS011;8347;52.486;13.432;2023-04-15T04:59:34;37.42;;;22.75;;
16472;SDS011;8347;52.486;13.432;2023-04-15T05:02:20;31.63;;;21.83;;
16472;SDS011;8347;52.486;13.432;2023-04-15T05:05:07;36.25;;;21.20;;
16472;SDS011;8347;52.486;13.432;2023-04-15T05:07:53;32.47;;;20.70;;
16472;SDS011;8347;52.486;13.432;2023-04-15T05:10:40;32.42;;;21.02;;
16472;SDS011;8347;52.486;13.432;2023-04-15T05:13:26;34.13;;;20.70;;
16472;SDS011;8347;52.486;13.432;2023-04-15T05:16:13;29.38;;;20.13;;
16472;SDS011;8347;52.486;13.432;2023-04-15T05:18:59;35.67;;;19.02;;
16472;SDS011;8347;52.486;13.432;2023-04-15T05:21:45;29.98;;;17.90;;
16472;SDS011;8347;52.486;13.432;2023-04-15T05:24:32;29.02;;;18.63;;
16472;SDS011;8347;52.486;13.432;2023-04-15T05:27:19;27.70;;;18.50;;
16472;SDS011;8347;52.486;13.432;2023-04-15T05:30:07;31.98;;;18.50;;
16472;SDS011;8347;52.486;13.432;2023-04-15T05:32:53;28.73;;;18.38;;
16472;SDS011;8347;52.486;13.432;2023-04-15T05:35:40;24.33;;;16.77;;
16472;SDS011;8347;52.486;13.432;2023-04-15T05:38:26;29.05;;;17.45;;
16472;SDS011;8347;52.486;13.432;2023-04-15T05:41:13;26.63;;;16.20;;
16472;SDS011;8347;52.486;13.432;2023-04-15T05:44:00;27.73;;;16.90;;
16472;SDS011;8347;52.486;13.432;2023-04-15T05:46:47;22.95;;;15.10;;
16472;SDS011;8347;52.486;13.432;2023-04-15T05:49:33;25.50;;;15.93;;
16472;SDS011;8347;52.486;13.432;2023-04-15T05:52:20;21.35;;;14.95;;
16472;SDS011;8347;52.486;13.432;2023-04-15T05:55:07;23.00;;;15.98;;
16472;SDS011;8347;52.486;13.432;2023-04-15T05:57:53;24.67;;;15.77;;
16472;SDS011;8347;52.486;13.432;2023-04-15T06:00:40;25.40;;;15.88;;
16472;SDS011;8347;52.486;13.432;2023-04-15T06:03:26;23.23;;;15.73;;
16472;SDS011;8347;52.486;13.432;2023-04-15T06:06:13;30.77;;;15.52;;
16472;SDS011;8347;52.486;13.432;2023-04-15T06:09:00;29.63;;;16.25;;
16472;SDS011;8347;52.486;13.432;2023-04-15T06:11:46;21.10;;;14.65;;
16472;SDS011;8347;52.486;13.432;2023-04-15T06:14:32;21.85;;;14.25;;
16472;SDS011;8347;52.486;13.432;2023-04-15T06:17:19;19.98;;;15.13;;
16472;SDS011;8347;52.486;13.432;2023-04-15T06:20:06;22.00;;;13.55;;
16472;SDS011;8347;52.486;13.432;2023-04-15T06:22:53;24.05;;;15.15;;
16472;SDS011;8347;52.486;13.432;2023-04-15T06:25:39;21.67;;;13.57;;
16472;SDS011;8347;52.486;13.432;2023-04-15T06:28:26;21.95;;;14.23;;
16472;SDS011;8347;52.486;13.432;2023-04-15T06:31:13;22.95;;;14.02;;
16472;SDS011;8347;52.486;13.432;2023-04-15T06:33:59;18.98;;;13.48;;
16472;SDS011;8347;52.486;13.432;2023-04-15T06:36:46;20.05;;;13.27;;
16472;SDS011;8347;52.486;13.432;2023-04-15T06:39:33;20.58;;;14.30;;
16472;SDS011;8347;52.486;13.432;2023-04-15T06:42:19;18.83;;;14.32;;
16472;SDS011;8347;52.486;13.432;2023-04-15T06:45:07;20.23;;;13.27;;
16472;SDS011;8347;52.486;13.432;2023-04-15T06:47:54;19.17;;;14.07;;
16472;SDS011;8347;52.486;13.432;2023-04-15T06:50:40;20.13;;;12.43;;
16472;SDS011;8347;52.486;13.432;2023-04-15T06:53:27;17.98;;;12.93;;
16472;SDS011;8347;52.486;13.432;2023-04-15T06:56:14;18.33;;;12.30;;
16472;SDS011;8347;52.486;13.432;2023-04-15T06:59:01;20.50;;;12.43;;
16472;SDS011;8347;52.486;13.432;2023-04-15T07:01:48;19.95;;;13.40;;
16472;SDS011;8347;52.486;13.432;2023-04-15T07:04:34;15.18;;;12.30;;
16472;SDS011;8347;52.486;13.432;2023-04-15T07:07:20;16.60;;;12.13;;
16472;SDS011;8347;52.486;13.432;2023-04-15T07:10:07;16.98;;;11.57;;
16472;SDS011;8347;52.486;13.432;2023-04-15T07:12:55;15.88;;;10.95;;
16472;SDS011;8347;52.486;13.432;2023-04-15T07:15:41;14.25;;;11.05;;
16472;SDS011;8347;52.486;13.432;2023-04-15T07:18:28;18.38;;;11.00;;
16472;SDS011;8347;52.486;13.432;2023-04-15T07:21:15;17.48;;;11.95;;
16472;SDS011;8347;52.486;13.432;2023-04-15T07:24:01;18.20;;;13.13;;
16472;SDS011;8347;52.486;13.432;2023-04-15T07:26:48;15.95;;;10.68;;
16472;SDS011;8347;52.486;13.432;2023-04-15T07:29:35;15.50;;;11.00;;
16472;SDS011;8347;52.486;13.432;2023-04-15T07:32:21;16.25;;;10.90;;
16472;SDS011;8347;52.486;13.432;2023-04-15T07:35:08;14.75;;;12.02;;
16472;SDS011;8347;52.486;13.432;2023-04-15T07:37:55;17.83;;;12.55;;
16472;SDS011;8347;52.486;13.432;2023-04-15T07:40:42;16.65;;;12.75;;
16472;SDS011;8347;52.486;13.432;2023-04-15T07:43:29;18.27;;;12.05;;
16472;SDS011;8347;52.486;13.432;2023-04-15T07:46:15;18.27;;;13.25;;
16472;SDS011;8347;52.486;13.432;2023-04-15T07:49:02;17.30;;;12.85;;
16472;SDS011;8347;52.486;13.432;2023-04-15T07:51:48;25.55;;;14.05;;
16472;SDS011;8347;52.486;13.432;2023-04-15T07:54:35;19.95;;;13.60;;
16472;SDS011;8347;52.486;13.432;2023-04-15T07:57:22;19.02;;;12.60;;
16472;SDS011;8347;52.486;13.432;2023-04-15T08:00:09;19.70;;;13.55;;
16472;SDS011;8347;52.486;13.432;2023-04-15T08:02:58;17.50;;;11.73;;
16472;SDS011;8347;52.486;13.432;2023-04-15T08:05:45;16.00;;;12.23;;
16472;SDS011;8347;52.486;13.432;2023-04-15T08:08:32;19.70;;;13.25;;
16472;SDS011;8347;52.486;13.432;2023-04-15T08:11:18;18.20;;;13.60;;
16472;SDS011;8347;52.486;13.432;2023-04-15T08:14:05;21.90;;;13.32;;
16472;SDS011;8347;52.486;13.432;2023-04-15T08:16:52;18.80;;;13.32;;
16472;SDS011;8347;52.486;13.432;2023-04-15T08:19:39;22.77;;;12.60;;
16472;SDS011;8347;52.486;13.432;2023-04-15T08:22:25;18.85;;;13.30;;
16472;SDS011;8347;52.486;13.432;2023-04-15T08:28:08;17.45;;;13.13;;
16472;SDS011;8347;52.486;13.432;2023-04-15T08:30:55;19.92;;;14.75;;
16472;SDS011;8347;52.486;13.432;2023-04-15T08:33:41;18.30;;;12.95;;
16472;SDS011;8347;52.486;13.432;2023-04-15T08:36:28;20.02;;;14.40;;
16472;SDS011;8347;52.486;13.432;2023-04-15T08:39:15;18.85;;;13.88;;
16472;SDS011;8347;52.486;13.432;2023-04-15T08:42:02;18.38;;;14.48;;
16472;SDS011;8347;52.486;13.432;2023-04-15T08:44:53;18.52;;;14.25;;
16472;SDS011;8347;52.486;13.432;2023-04-15T08:47:40;18.42;;;13.57;;
16472;SDS011;8347;52.486;13.432;2023-04-15T08:50:29;18.58;;;14.43;;
16472;SDS011;8347;52.486;13.432;2023-04-15T08:53:17;21.25;;;14.13;;
16472;SDS011;8347;52.486;13.432;2023-04-15T08:56:04;22.70;;;15.40;;
16472;SDS011;8347;52.486;13.432;2023-04-15T08:58:52;19.00;;;14.10;;
16472;SDS011;8347;52.486;13.432;2023-04-15T09:01:39;19.70;;;15.13;;
16472;SDS011;8347;52.486;13.432;2023-04-15T09:04:26;20.85;;;14.48;;
16472;SDS011;8347;52.486;13.432;2023-04-15T09:07:14;21.23;;;13.75;;
16472;SDS011;8347;52.486;13.432;2023-04-15T09:10:02;18.13;;;14.00;;
16472;SDS011;8347;52.486;13.432;2023-04-15T09:12:49;18.50;;;14.77;;
16472;SDS011;8347;52.486;13.432;2023-04-15T09:15:37;19.45;;;13.63;;
16472;SDS011;8347;52.486;13.432;2023-04-15T09:18:30;19.20;;;14.63;;
16472;SDS011;8347;52.486;13.432;2023-04-15T09:21:17;18.48;;;14.10;;
16472;SDS011;8347;52.486;13.432;2023-04-15T09:24:04;19.38;;;14.45;;
16472;SDS011;8347;52.486;13.432;2023-04-15T09:26:51;20.45;;;14.95;;
16472;SDS011;8347;52.486;13.432;2023-04-15T09:29:40;18.27;;;14.02;;
16472;SDS011;8347;52.486;13.432;2023-04-15T09:32:27;21.23;;;14.30;;
16472;SDS011;8347;52.486;13.432;2023-04-15T09:35:13;18.52;;;14.32;;
16472;SDS011;8347;52.486;13.432;2023-04-15T09:38:06;19.70;;;14.68;;
16472;SDS011;8347;52.486;13.432;2023-04-15T09:40:54;23.17;;;14.10;;
16472;SDS011;8347;52.486;13.432;2023-04-15T09:43:40;21.40;;;15.50;;
16472;SDS011;8347;52.486;13.432;2023-04-15T09:46:43;18.92;;;14.50;;
16472;SDS011;8347;52.486;13.432;2023-04-15T09:49:30;17.33;;;13.48;;
16472;SDS011;8347;52.486;13.432;2023-04-15T09:52:17;20.90;;;13.50;;
16472;SDS011;8347;52.486;13.432;2023-04-15T09:55:04;18.85;;;14.68;;
16472;SDS011;8347;52.486;13.432;2023-04-15T09:57:51;17.10;;;13.98;;
16472;SDS011;8347;52.486;13.432;2023-04-15T10:00:38;17.88;;;13.30;;
16472;SDS011;8347;52.486;13.432;2023-04-15T10:03:26;22.58;;;15.57;;
16472;SDS011;8347;52.486;13.432;2023-04-15T10:06:13;19.58;;;14.07;;
16472;SDS011;8347;52.486;13.432;2023-04-15T10:08:59;18.33;;;14.50;;
16472;SDS011;8347;52.486;13.432;2023-04-15T10:11:46;20.98;;;15.85;;
16472;SDS011;8347;52.486;13.432;2023-04-15T10:14:34;18.25;;;15.07;;
16472;SDS011;8347;52.486;13.432;2023-04-15T10:17:23;18.65;;;14.60;;
16472;SDS011;8347;52.486;13.432;2023-04-15T10:20:11;19.98;;;15.10;;
16472;SDS011;8347;52.486;13.432;2023-04-15T10:22:59;17.98;;;14.10;;
16472;SDS011;8347;52.486;13.432;2023-04-15T10:25:47;18.85;;;14.25;;
16472;SDS011;8347;52.486;13.432;2023-04-15T10:28:37;24.30;;;14.18;;
16472;SDS011;8347;52.486;13.432;2023-04-15T10:31:24;17.25;;;13.82;;
16472;SDS011;8347;52.486;13.432;2023-04-15T10:34:10;17.73;;;13.73;;
16472;SDS011;8347;52.486;13.432;2023-04-15T10:37:00;18.98;;;14.10;;
16472;SDS011;8347;52.486;13.432;2023-04-15T10:39:48;20.38;;;14.18;;
16472;SDS011;8347;52.486;13.432;2023-04-15T10:42:35;18.00;;;13.70;;
16472;SDS011;8347;52.486;13.432;2023-04-15T10:45:24;17.65;;;12.75;;
16472;SDS011;8347;52.486;13.432;2023-04-15T10:48:12;19.90;;;14.73;;
16472;SDS011;8347;52.486;13.432;2023-04-15T10:51:01;16.10;;;13.25;;
16472;SDS011;8347;52.486;13.432;2023-04-15T10:53:48;18.63;;;13.98;;
16472;SDS011;8347;52.486;13.432;2023-04-15T10:56:35;17.13;;;13.50;;
16472;SDS011;8347;52.486;13.432;2023-04-15T10:59:21;16.88;;;13.57;;
16472;SDS011;8347;52.486;13.432;2023-04-15T11:02:08;15.43;;;12.80;;
16472;SDS011;8347;52.486;13.432;2023-04-15T11:04:58;18.45;;;12.40;;
16472;SDS011;8347;52.486;13.432;2023-04-15T11:07:50;16.98;;;13.50;;
16472;SDS011;8347;52.486;13.432;2023-04-15T11:13:24;17.75;;;13.82;;
16472;SDS011;8347;52.486;13.432;2023-04-15T11:16:11;17.25;;;12.88;;
16472;SDS011;8347;52.486;13.432;2023-04-15T11:18:58;17.83;;;13.63;;
16472;SDS011;8347;52.486;13.432;2023-04-15T11:21:46;15.48;;;12.95;;
16472;SDS011;8347;52.486;13.432;2023-04-15T11:24:32;16.10;;;12.38;;
16472;SDS011;8347;52.486;13.432;2023-04-15T11:27:20;14.55;;;12.02;;
16472;SDS011;8347;52.486;13.432;2023-04-15T11:30:19;14.75;;;11.70;;
16472;SDS011;8347;52.486;13.432;2023-04-15T11:33:08;18.77;;;13.32;;
16472;SDS011;8347;52.486;13.432;2023-04-15T11:35:56;18.55;;;13.30;;
16472;SDS011;8347;52.486;13.432;2023-04-15T11:38:45;15.10;;;11.95;;
16472;SDS011;8347;52.486;13.432;2023-04-15T11:41:35;12.80;;;11.10;;
16472;SDS011;8347;52.486;13.432;2023-04-15T11:44:21;13.40;;;11.35;;
16472;SDS011;8347;52.486;13.432;2023-04-15T11:47:23;15.73;;;12.32;;
16472;SDS011;8347;52.486;13.432;2023-04-15T11:50:13;13.63;;;11.30;;
16472;SDS011;8347;52.486;13.432;2023-04-15T11:53:03;18.25;;;13.07;;
16472;SDS011;8347;52.486;13.432;2023-04-15T11:55:51;16.95;;;12.23;;
16472;SDS011;8347;52.486;13.432;2023-04-15T11:58:38;17.85;;;12.40;;
16472;SDS011;8347;52.486;13.432;2023-04-15T12:01:31;16.60;;;13.50;;
16472;SDS011;8347;52.486;13.432;2023-04-15T12:04:18;14.05;;;11.82;;
16472;SDS011;8347;52.486;13.432;2023-04-15T12:07:07;14.68;;;11.65;;
16472;SDS011;8347;52.486;13.432;2023-04-15T12:09:54;17.98;;;11.85;;
16472;SDS011;8347;52.486;13.432;2023-04-15T12:12:41;16.92;;;11.88;;
16472;SDS011;8347;52.486;13.432;2023-04-15T12:15:27;17.65;;;12.75;;
16472;SDS011;8347;52.486;13.432;2023-04-15T12:18:17;15.73;;;11.55;;
16472;SDS011;8347;52.486;13.432;2023-04-15T12:21:08;16.13;;;12.57;;
16472;SDS011;8347;52.486;13.432;2023-04-15T12:23:55;14.63;;;11.30;;
16472;SDS011;8347;52.486;13.432;2023-04-15T12:26:44;12.30;;;10.48;;
16472;SDS011;8347;52.486;13.432;2023-04-15T12:29:32;15.43;;;11.57;;
16472;SDS011;8347;52.486;13.432;2023-04-15T12:32:19;14.82;;;10.68;;
16472;SDS011;8347;52.486;13.432;2023-04-15T12:35:06;13.05;;;11.23;;
16472;SDS011;8347;52.486;13.432;2023-04-15T12:37:53;12.27;;;10.43;;
16472;SDS011;8347;52.486;13.432;2023-04-15T12:40:40;12.35;;;9.57;;
16472;SDS011;8347;52.486;13.432;2023-04-15T12:43:26;12.52;;;10.57;;
16472;SDS011;8347;52.486;13.432;2023-04-15T12:46:13;11.85;;;10.30;;
16472;SDS011;8347;52.486;13.432;2023-04-15T12:49:00;13.23;;;10.48;;
16472;SDS011;8347;52.486;13.432;2023-04-15T12:51:47;11.95;;;9.90;;
16472;SDS011;8347;52.486;13.432;2023-04-15T12:54:34;12.57;;;10.30;;
16472;SDS011;8347;52.486;13.432;2023-04-15T12:57:21;13.18;;;10.38;;
16472;SDS011;8347;52.486;13.432;2023-04-15T13:00:08;11.20;;;9.25;;
16472;SDS011;8347;52.486;13.432;2023-04-15T13:02:55;12.90;;;9.43;;
16472;SDS011;8347;52.486;13.432;2023-04-15T13:05:42;12.85;;;10.18;;
16472;SDS011;8347;52.486;13.432;2023-04-15T13:08:29;9.55;;;8.50;;
16472;SDS011;8347;52.486;13.432;2023-04-15T13:11:15;10.75;;;8.88;;
16472;SDS011;8347;52.486;13.432;2023-04-15T13:14:03;11.93;;;9.30;;
16472;SDS011;8347;52.486;13.432;2023-04-15T13:16:50;11.85;;;8.80;;
16472;SDS011;8347;52.486;13.432;2023-04-15T13:19:37;10.68;;;8.80;;
16472;SDS011;8347;52.486;13.432;2023-04-15T13:22:24;10.95;;;8.75;;
16472;SDS011;8347;52.486;13.432;2023-04-15T13:25:10;12.27;;;9.70;;
16472;SDS011;8347;52.486;13.432;2023-04-15T13:28:00;11.68;;;9.27;;
16472;SDS011;8347;52.486;13.432;2023-04-15T13:30:47;14.75;;;10.30;;
16472;SDS011;8347;52.486;13.432;2023-04-15T13:33:34;11.88;;;9.32;;
16472;SDS011;8347;52.486;13.432;2023-04-15T13:36:21;11.27;;;9.70;;
16472;SDS011;8347;52.486;13.432;2023-04-15T13:39:07;12.02;;;9.52;;
16472;SDS011;8347;52.486;13.432;2023-04-15T13:41:54;12.20;;;8.38;;
16472;SDS011;8347;52.486;13.432;2023-04-15T13:44:40;8.55;;;7.38;;
16472;SDS011;8347;52.486;13.432;2023-04-15T13:47:27;8.82;;;7.80;;
16472;SDS011;8347;52.486;13.432;2023-04-15T13:50:14;8.65;;;7.65;;
16472;SDS011;8347;52.486;13.432;2023-04-15T13:53:00;8.98;;;7.65;;
16472;SDS011;8347;52.486;13.432;2023-04-15T13:55:47;8.30;;;6.65;;
16472;SDS011;8347;52.486;13.432;2023-04-15T13:58:34;7.90;;;6.78;;
16472;SDS011;8347;52.486;13.432;2023-04-15T14:01:21;8.57;;;7.15;;
16472;SDS011;8347;52.486;13.432;2023-04-15T14:04:08;11.27;;;7.15;;
16472;SDS011;8347;52.486;13.432;2023-04-15T14:06:54;8.98;;;7.13;;
16472;SDS011;8347;52.486;13.432;2023-04-15T14:09:42;8.50;;;7.60;;
16472;SDS011;8347;52.486;13.432;2023-04-15T14:12:29;10.77;;;8.45;;
16472;SDS011;8347;52.486;13.432;2023-04-15T14:15:16;8.77;;;7.88;;
16472;SDS011;8347;52.486;13.432;2023-04-15T14:18:02;10.50;;;8.75;;
16472;SDS011;8347;52.486;13.432;2023-04-15T14:20:49;9.75;;;8.60;;
16472;SDS011;8347;52.486;13.432;2023-04-15T14:23:37;9.63;;;7.68;;
16472;SDS011;8347;52.486;13.432;2023-04-15T14:26:24;10.30;;;8.43;;
16472;SDS011;8347;52.486;13.432;2023-04-15T14:29:10;9.70;;;7.93;;
16472;SDS011;8347;52.486;13.432;2023-04-15T14:31:57;9.23;;;7.55;;
16472;SDS011;8347;52.486;13.432;2023-04-15T14:34:43;9.07;;;7.32;;
16472;SDS011;8347;52.486;13.432;2023-04-15T14:37:30;8.30;;;7.22;;
16472;SDS011;8347;52.486;13.432;2023-04-15T14:40:17;9.52;;;7.85;;
16472;SDS011;8347;52.486;13.432;2023-04-15T14:43:04;9.52;;;7.80;;
16472;SDS011;8347;52.486;13.432;2023-04-15T14:45:50;9.55;;;7.80;;
16472;SDS011;8347;52.486;13.432;2023-04-15T14:48:37;10.80;;;8.40;;
16472;SDS011;8347;52.486;13.432;2023-04-15T14:51:24;10.18;;;7.57;;
16472;SDS011;8347;52.486;13.432;2023-04-15T14:54:11;10.00;;;7.90;;
16472;SDS011;8347;52.486;13.432;2023-04-15T14:56:58;10.75;;;7.53;;
16472;SDS011;8347;52.486;13.432;2023-04-15T14:59:46;11.10;;;8.90;;
16472;SDS011;8347;52.486;13.432;2023-04-15T15:02:33;10.75;;;8.60;;
16472;SDS011;8347;52.486;13.432;2023-04-15T15:05:21;10.85;;;8.68;;
16472;SDS011;8347;52.486;13.432;2023-04-15T15:08:08;9.93;;;7.40;;
16472;SDS011;8347;52.486;13.432;2023-04-15T15:10:54;9.82;;;8.50;;
16472;SDS011;8347;52.486;13.432;2023-04-15T15:13:41;10.65;;;9.05;;
16472;SDS011;8347;52.486;13.432;2023-04-15T15:16:27;11.30;;;8.73;;
16472;SDS011;8347;52.486;13.432;2023-04-15T15:19:14;9.18;;;7.97;;
16472;SDS011;8347;52.486;13.432;2023-04-15T15:22:02;9.70;;;8.25;;
16472;SDS011;8347;52.486;13.432;2023-04-15T15:24:48;11.50;;;7.93;;
16472;SDS011;8347;52.486;13.432;2023-04-15T15:27:35;11.55;;;9.02;;
16472;SDS011;8347;52.486;13.432;2023-04-15T15:30:22;10.15;;;8.43;;
16472;SDS011;8347;52.486;13.432;2023-04-15T15:33:08;8.70;;;7.07;;
16472;SDS011;8347;52.486;13.432;2023-04-15T15:35:55;9.00;;;7.53;;
16472;SDS011;8347;52.486;13.432;2023-04-15T15:38:42;9.18;;;7.40;;
16472;SDS011;8347;52.486;13.432;2023-04-15T15:41:29;12.57;;;8.38;;
16472;SDS011;8347;52.486;13.432;2023-04-15T15:44:17;10.02;;;8.45;;
16472;SDS011;8347;52.486;13.432;2023-04-15T15:47:04;8.77;;;7.75;;
16472;SDS011;8347;52.486;13.432;2023-04-15T15:49:51;9.00;;;7.38;;
16472;SDS011;8347;52.486;13.432;2023-04-15T15:52:38;7.82;;;6.78;;
16472;SDS011;8347;52.486;13.432;2023-04-15T15:55:24;8.70;;;7.28;;
16472;SDS011;8347;52.486;13.432;2023-04-15T15:58:11;7.53;;;6.68;;
16472;SDS011;8347;52.486;13.432;2023-04-15T16:00:58;10.07;;;6.95;;
16472;SDS011;8347;52.486;13.432;2023-04-15T16:03:45;6.82;;;5.35;;
16472;SDS011;8347;52.486;13.432;2023-04-15T16:06:31;5.85;;;5.20;;
16472;SDS011;8347;52.486;13.432;2023-04-15T16:09:18;6.97;;;5.78;;
16472;SDS011;8347;52.486;13.432;2023-04-15T16:12:04;6.90;;;5.85;;
16472;SDS011;8347;52.486;13.432;2023-04-15T16:14:51;6.63;;;5.93;;
16472;SDS011;8347;52.486;13.432;2023-04-15T16:17:38;6.95;;;5.65;;
16472;SDS011;8347;52.486;13.432;2023-04-15T16:20:25;9.77;;;7.03;;
16472;SDS011;8347;52.486;13.432;2023-04-15T16:23:13;8.27;;;6.82;;
16472;SDS011;8347;52.486;13.432;2023-04-15T16:26:00;8.32;;;6.80;;
16472;SDS011;8347;52.486;13.432;2023-04-15T16:28:47;8.05;;;5.80;;